Aeroporto :
LOGIN :

Iscrizione | Disclaimer

   EN    FR    IT 

 










Sommario :    VFR   VFR Marginale   IFR   IFR Intensivo   IFR Molto Intensivo
Visibilità : 
Base nubi : 
>= 8 km
>= 3000ft
5 / 8 km
1000 / 3000 ft
1500m / 5 km
500 / 1000 ft
800 / 1500m
200 / 500 ft
< 800m
< 200 ft
Simboli :   Temporali  Nebbia  Neve Forte  Precipitazioni Forti  Vento > 20 kt
SIGMETs :   Varie  Temporali  Ghiacco  Turbolenza  Onda orograficha  Ceneri Vulcaniche






- Altitudine del aeroporto : 32 ft
- Codice IATA : LKZ


EGUL - RAF Lakenheath

ULTIMO METAR :
  • 191656Z 03012KT 9999 CLR 19/09 A3006 RMK AO2A SLPNO ALSTG ESTMD $

METARs OBSOLETI :
  • 191556Z AUTO 03011KT 9999 CLR M A3006 RMK AO2 SLPNO ALSTG ESTMD $
  • 191456Z AUTO 03013KT 9999 CLR M A3006 RMK AO2 SLPNO ALSTG ESTMD 56010 $

TAF AMD TAF EGUL
Valido dal 18 a 16 ore il 19 a 18 ore UTC


181656Z 1816/1918 09015G25KT 9999 SKC QNH3017INS
BECMG 1818/1819 07012KT 9999 SCT030 QNH3010INS
BECMG 1908/1909 06012G18KT 9999 SCT030 QNH3004INS TX22/1912Z TN12/1906Z LAST NO AMDS AFT 1817 NEXT 2104



MetMap, La meteo Aeronautica in un colpo d'occhio ! - Copyright ORBIFLY Dicembre 2007 - Disclaimer

ORBIFLY MET'MAP TEAM :

Programmazione e sviluppo : Alexandra Zaïnal
Concezione : Baudouin d'Aumeries
Aiuto per la programmazione : Marc-Olivier Méhu
Supporto tecnico e logistico : Manuel Goepfert
Aiuto per la traduzione : Arnaldo La Scala

Contatto : metmap@orbifly.com




FONTI E CREDITI :

   NOAA